createdAt,value
2017-09-26T00:01:49.698Z,89.50
2017-09-26T00:04:17.178Z,89.30
2017-09-26T00:06:44.662Z,89.40
2017-09-26T00:09:12.903Z,89.60
2017-09-26T00:11:40.388Z,89.60
2017-09-26T00:14:08.736Z,89.40
2017-09-26T00:16:36.985Z,89.30
2017-09-26T00:19:04.457Z,89.20
2017-09-26T00:21:31.972Z,89.10
2017-09-26T00:23:59.448Z,89.20
2017-09-26T00:26:26.937Z,89.50
2017-09-26T00:28:54.467Z,89.60
2017-09-26T00:31:21.965Z,89.60
2017-09-26T00:33:50.413Z,88.90
2017-09-26T00:36:17.894Z,88.90
2017-09-26T00:38:46.626Z,89.00
2017-09-26T00:41:14.117Z,89.00
2017-09-26T00:43:41.664Z,89.20
2017-09-26T00:46:09.225Z,89.10
2017-09-26T00:48:36.698Z,89.10
2017-09-26T00:51:04.181Z,89.50
2017-09-26T00:53:31.669Z,89.50
2017-09-26T00:55:59.141Z,89.60
2017-09-26T00:58:26.617Z,89.90
2017-09-26T01:00:54.099Z,89.50
2017-09-26T01:03:21.717Z,90.00
2017-09-26T01:05:59.123Z,90.10
2017-09-26T01:08:26.592Z,90.20
2017-09-26T01:10:54.071Z,90.20
2017-09-26T01:13:21.542Z,90.20
2017-09-26T01:15:49.802Z,90.10
2017-09-26T01:18:17.310Z,90.10
2017-09-26T01:20:44.788Z,89.70
2017-09-26T01:23:12.267Z,89.80
2017-09-26T01:25:39.738Z,89.80
2017-09-26T01:28:08.109Z,90.30
2017-09-26T01:30:35.636Z,90.00
2017-09-26T01:33:03.125Z,90.20
2017-09-26T01:35:30.604Z,90.20
2017-09-26T01:37:58.839Z,90.30
2017-09-26T01:40:26.313Z,90.30
2017-09-26T01:42:53.778Z,90.30
2017-09-26T01:45:22.027Z,90.30
2017-09-26T01:47:49.503Z,90.30
2017-09-26T01:50:17.069Z,90.00
2017-09-26T01:52:45.298Z,90.00
2017-09-26T01:55:12.781Z,90.00
2017-09-26T01:57:43.997Z,89.70
2017-09-26T02:00:11.505Z,89.60
2017-09-26T02:02:39.741Z,89.50
2017-09-26T02:05:07.212Z,89.50
2017-09-26T02:07:34.688Z,89.30
2017-09-26T02:10:02.157Z,89.60
2017-09-26T02:12:30.593Z,89.50
2017-09-26T02:14:58.230Z,89.50
2017-09-26T02:17:25.755Z,89.50
2017-09-26T02:19:54.725Z,89.40
2017-09-26T02:22:22.198Z,89.40
2017-09-26T02:24:50.495Z,89.10
2017-09-26T02:27:18.178Z,89.10
2017-09-26T02:29:45.665Z,89.40
2017-09-26T02:32:13.140Z,89.50
2017-09-26T02:34:41.392Z,89.80
2017-09-26T02:37:08.862Z,89.70
2017-09-26T02:39:37.561Z,89.80
2017-09-26T02:42:05.034Z,89.70
2017-09-26T02:44:33.261Z,89.70
2017-09-26T02:47:00.814Z,89.60
2017-09-26T02:49:28.281Z,89.60
2017-09-26T02:51:55.808Z,89.50
2017-09-26T02:54:23.268Z,89.50
2017-09-26T02:56:50.754Z,89.40
2017-09-26T02:59:18.230Z,89.40
2017-09-26T03:01:46.462Z,89.60
2017-09-26T03:04:14.053Z,89.60
2017-09-26T03:06:41.671Z,89.50
2017-09-26T03:09:09.162Z,89.60
2017-09-26T03:11:36.642Z,89.60
2017-09-26T03:14:04.113Z,89.60
2017-09-26T03:16:32.375Z,89.80
2017-09-26T03:19:00.630Z,89.60
2017-09-26T03:21:28.125Z,89.50
2017-09-26T03:23:56.352Z,89.40
2017-09-26T03:26:23.855Z,89.40
2017-09-26T03:28:52.086Z,89.00
2017-09-26T03:31:19.567Z,89.00
2017-09-26T03:33:47.025Z,89.00
2017-09-26T03:36:15.234Z,89.20
2017-09-26T03:38:42.813Z,89.10
2017-09-26T03:41:10.296Z,88.80
2017-09-26T03:43:37.866Z,88.80
2017-09-26T03:46:06.115Z,89.00
2017-09-26T03:48:33.605Z,89.00
2017-09-26T03:51:01.520Z,89.00
2017-09-26T03:56:03.630Z,89.30
2017-09-26T03:58:31.116Z,89.30
2017-09-26T04:00:58.596Z,89.30
2017-09-26T04:03:26.092Z,89.30
2017-09-26T04:05:53.573Z,89.10
2017-09-26T04:08:21.042Z,88.90
2017-09-26T04:10:48.522Z,88.70
2017-09-26T04:13:16.233Z,89.10
2017-09-26T04:15:43.788Z,89.20
2017-09-26T04:18:11.399Z,89.30
2017-09-26T04:20:39.645Z,88.80
2017-09-26T04:23:07.117Z,88.80
2017-09-26T04:25:34.603Z,88.70
2017-09-26T04:28:02.061Z,88.60
2017-09-26T04:30:29.564Z,88.80
2017-09-26T04:32:57.037Z,88.90
2017-09-26T04:35:26.288Z,89.40
2017-09-26T04:37:53.757Z,89.40
2017-09-26T04:40:21.281Z,89.30
2017-09-26T04:42:48.844Z,89.70
2017-09-26T04:45:16.429Z,89.40
2017-09-26T04:47:44.010Z,89.00
2017-09-26T04:50:11.469Z,88.70
2017-09-26T04:52:38.969Z,88.70
2017-09-26T04:55:07.206Z,89.00
2017-09-26T04:57:34.709Z,89.00
2017-09-26T05:00:02.213Z,89.10
2017-09-26T05:02:29.683Z,89.00
2017-09-26T05:04:57.968Z,89.00
2017-09-26T05:07:25.406Z,89.10
2017-09-26T05:09:52.884Z,89.00
2017-09-26T05:12:20.356Z,89.00
2017-09-26T05:14:48.617Z,89.50
2017-09-26T05:17:17.585Z,89.20
2017-09-26T05:19:45.098Z,89.20
2017-09-26T05:22:12.565Z,89.00
2017-09-26T05:24:40.040Z,88.90
2017-09-26T05:27:07.517Z,88.60
2017-09-26T05:29:35.012Z,88.20
2017-09-26T05:32:03.268Z,88.10
2017-09-26T05:34:30.731Z,88.10
2017-09-26T05:36:58.980Z,88.20
2017-09-26T05:39:26.473Z,88.20
2017-09-26T05:41:54.710Z,88.10
2017-09-26T05:44:22.232Z,88.10
2017-09-26T05:46:49.708Z,87.90
2017-09-26T05:49:17.185Z,88.30
2017-09-26T05:51:45.475Z,88.40
2017-09-26T05:54:14.466Z,88.90
2017-09-26T05:56:41.939Z,88.80
2017-09-26T05:59:10.178Z,88.60
2017-09-26T06:01:37.645Z,88.60
2017-09-26T06:04:05.116Z,88.90
2017-09-26T06:06:32.622Z,88.70
2017-09-26T06:09:00.081Z,88.50
2017-09-26T06:11:27.559Z,88.20
2017-09-26T06:13:55.033Z,88.20
2017-09-26T06:16:24.284Z,88.40
2017-09-26T06:18:51.762Z,88.40
2017-09-26T06:21:20.430Z,88.30
2017-09-26T06:23:47.904Z,88.10
2017-09-26T06:26:15.377Z,88.00
2017-09-26T06:28:42.873Z,88.70
2017-09-26T06:31:11.095Z,87.80
2017-09-26T06:33:38.624Z,87.80
2017-09-26T06:36:06.093Z,87.90
2017-09-26T06:38:33.589Z,87.80
2017-09-26T06:41:01.055Z,88.60
2017-09-26T06:43:28.517Z,88.00
2017-09-26T06:45:55.998Z,88.00
2017-09-26T06:48:24.224Z,87.70
2017-09-26T06:50:51.697Z,87.70
2017-09-26T06:53:19.288Z,87.50
2017-09-26T06:55:46.779Z,87.20
2017-09-26T06:58:14.477Z,87.40
2017-09-26T07:00:41.987Z,87.70
2017-09-26T07:03:09.592Z,87.70
2017-09-26T07:05:37.088Z,87.70
2017-09-26T07:08:04.585Z,87.30
2017-09-26T07:10:32.066Z,87.60
2017-09-26T07:12:59.697Z,87.50
2017-09-26T07:15:27.250Z,87.50
2017-09-26T07:17:54.811Z,87.90
2017-09-26T07:20:22.426Z,87.80
2017-09-26T07:22:50.682Z,87.20
2017-09-26T07:25:18.149Z,87.10
2017-09-26T07:27:46.434Z,86.40
2017-09-26T07:30:14.691Z,86.80
2017-09-26T07:32:42.158Z,86.70
2017-09-26T07:35:10.409Z,86.30
2017-09-26T07:37:37.881Z,85.50
2017-09-26T07:40:06.135Z,84.80
2017-09-26T07:42:33.610Z,84.80
2017-09-26T07:45:01.078Z,85.00
2017-09-26T07:47:29.322Z,85.00
2017-09-26T07:49:56.814Z,84.70
2017-09-26T07:52:25.175Z,84.20
2017-09-26T07:54:52.663Z,84.20
2017-09-26T07:57:20.907Z,84.80
2017-09-26T07:59:48.379Z,84.60
2017-09-26T08:02:17.526Z,85.00
2017-09-26T08:04:46.796Z,84.30
2017-09-26T08:07:14.992Z,84.50
2017-09-26T08:09:43.352Z,85.00
2017-09-26T08:12:11.418Z,84.30
2017-09-26T08:14:38.949Z,84.30
2017-09-26T08:17:06.449Z,84.20
2017-09-26T08:19:33.927Z,83.90
2017-09-26T08:22:01.399Z,83.90
2017-09-26T08:24:28.937Z,83.30
2017-09-26T08:26:56.450Z,83.40
2017-09-26T08:29:24.712Z,83.20
2017-09-26T08:31:52.172Z,83.20
2017-09-26T08:34:20.454Z,83.10
2017-09-26T08:36:47.905Z,83.00
2017-09-26T08:39:16.165Z,82.30
2017-09-26T08:41:43.828Z,82.30
2017-09-26T08:44:11.353Z,82.20
2017-09-26T08:46:39.422Z,82.20
2017-09-26T08:49:06.881Z,82.00
2017-09-26T08:51:34.384Z,82.00
2017-09-26T08:54:02.620Z,81.50
2017-09-26T08:56:30.102Z,81.50
2017-09-26T08:58:57.572Z,81.40
2017-09-26T09:01:25.910Z,81.50
2017-09-26T09:03:53.385Z,81.50
2017-09-26T09:06:20.857Z,80.70
2017-09-26T09:08:48.326Z,81.20
2017-09-26T09:11:16.552Z,79.80
2017-09-26T09:13:44.031Z,79.80
2017-09-26T09:16:11.523Z,79.30
2017-09-26T09:18:39.757Z,79.80
2017-09-26T09:21:07.401Z,79.80
2017-09-26T09:23:34.879Z,78.80
2017-09-26T09:26:02.546Z,78.70
2017-09-26T09:28:31.533Z,77.40
2017-09-26T09:31:00.525Z,75.90
2017-09-26T09:33:28.100Z,75.80
2017-09-26T09:35:55.602Z,75.60
2017-09-26T09:38:23.265Z,76.30
2017-09-26T09:40:50.842Z,74.60
2017-09-26T09:43:18.537Z,75.80
2017-09-26T09:45:46.170Z,75.50
2017-09-26T09:48:13.667Z,75.00
2017-09-26T09:50:41.901Z,75.00
2017-09-26T09:53:09.366Z,74.90
2017-09-26T09:55:36.838Z,76.40
2017-09-26T09:58:04.326Z,75.40
2017-09-26T10:00:32.553Z,74.70
2017-09-26T10:03:00.048Z,74.60
2017-09-26T10:05:28.283Z,74.50
2017-09-26T10:07:55.756Z,74.50
2017-09-26T10:10:23.220Z,75.20
2017-09-26T10:12:50.716Z,75.90
2017-09-26T10:15:18.200Z,76.40
2017-09-26T10:17:45.669Z,75.10
2017-09-26T10:20:13.149Z,74.80
2017-09-26T10:22:40.613Z,74.40
2017-09-26T10:25:08.870Z,74.80
2017-09-26T10:27:36.341Z,74.30
2017-09-26T10:30:04.578Z,73.20
2017-09-26T10:32:32.178Z,73.80
2017-09-26T10:34:59.787Z,73.60
2017-09-26T10:37:27.354Z,74.00
2017-09-26T10:39:54.818Z,73.70
2017-09-26T10:42:22.300Z,73.50
2017-09-26T10:44:51.282Z,72.10
2017-09-26T10:47:18.840Z,72.10
2017-09-26T10:49:46.333Z,72.30
2017-09-26T10:52:14.581Z,71.40
2017-09-26T10:54:42.168Z,71.30
2017-09-26T10:57:10.416Z,71.60
2017-09-26T10:59:37.930Z,71.60
2017-09-26T11:02:05.394Z,72.20
2017-09-26T11:04:32.895Z,72.00
2017-09-26T11:07:00.406Z,72.00
2017-09-26T11:09:28.045Z,71.80
2017-09-26T11:11:56.294Z,71.70
2017-09-26T11:14:23.853Z,71.70
2017-09-26T11:16:51.433Z,72.30
2017-09-26T11:19:19.667Z,70.40
2017-09-26T11:21:47.145Z,70.40
2017-09-26T11:24:15.376Z,71.00
2017-09-26T11:26:42.858Z,70.90
2017-09-26T11:29:10.337Z,71.00
2017-09-26T11:31:37.958Z,70.70
2017-09-26T11:34:05.425Z,70.90
2017-09-26T11:36:32.897Z,70.30
2017-09-26T11:39:00.375Z,70.00
2017-09-26T11:41:28.613Z,64.20
2017-09-26T11:43:56.257Z,64.20
2017-09-26T11:46:23.745Z,64.40
2017-09-26T11:48:51.245Z,63.70
2017-09-26T11:51:18.732Z,64.60
2017-09-26T11:53:46.215Z,64.50
2017-09-26T11:56:15.204Z,65.10
2017-09-26T11:58:42.730Z,65.00
2017-09-26T12:01:10.313Z,64.40
2017-09-26T12:03:37.960Z,66.00
2017-09-26T12:06:05.592Z,65.40
2017-09-26T12:08:33.119Z,64.20
2017-09-26T12:11:00.767Z,64.80
2017-09-26T12:13:46.982Z,63.00
2017-09-26T12:16:15.249Z,64.40
2017-09-26T12:18:42.732Z,64.40
2017-09-26T12:21:10.953Z,65.00
2017-09-26T12:23:38.441Z,65.00
2017-09-26T12:26:05.909Z,65.70
2017-09-26T12:28:34.164Z,65.70
2017-09-26T12:31:01.630Z,65.70
2017-09-26T12:33:29.121Z,64.40
2017-09-26T12:35:56.617Z,65.20
2017-09-26T12:38:24.128Z,63.30
2017-09-26T12:40:51.628Z,63.90
2017-09-26T12:43:19.174Z,65.30
2017-09-26T12:45:46.666Z,66.10
2017-09-26T12:48:14.134Z,65.90
2017-09-26T12:50:42.401Z,66.20
2017-09-26T12:53:09.866Z,65.90
2017-09-26T12:55:38.131Z,64.60
2017-09-26T12:58:05.610Z,64.80
2017-09-26T13:00:34.053Z,63.80
2017-09-26T13:03:01.731Z,63.80
2017-09-26T13:05:29.201Z,64.20
2017-09-26T13:07:57.433Z,60.70
2017-09-26T13:10:24.943Z,60.70
2017-09-26T13:12:53.204Z,58.70
2017-09-26T13:15:21.473Z,58.90
2017-09-26T13:17:48.966Z,58.30
2017-09-26T13:20:16.469Z,58.80
2017-09-26T13:22:43.952Z,59.20
2017-09-26T13:25:11.435Z,59.20
2017-09-26T13:27:38.893Z,55.70
2017-09-26T13:30:06.369Z,55.50
2017-09-26T13:32:33.853Z,54.90
2017-09-26T13:35:01.341Z,54.80
2017-09-26T13:37:28.813Z,53.70
2017-09-26T13:39:57.064Z,50.50
2017-09-26T13:42:24.555Z,50.50
2017-09-26T13:44:52.025Z,49.20
2017-09-26T13:47:19.689Z,50.10
2017-09-26T13:49:47.174Z,49.80
2017-09-26T13:52:14.653Z,50.20
2017-09-26T13:54:42.141Z,50.10
2017-09-26T13:57:23.789Z,54.70
2017-09-26T13:59:51.277Z,54.70
2017-09-26T14:02:19.512Z,65.60
2017-09-26T14:04:47.000Z,65.50
2017-09-26T14:07:15.245Z,70.60
2017-09-26T14:09:42.725Z,69.90
2017-09-26T14:12:10.207Z,73.70
2017-09-26T14:14:37.706Z,74.00
2017-09-26T14:17:05.196Z,75.70
2017-09-26T14:19:32.683Z,74.70
2017-09-26T14:22:00.934Z,76.50
2017-09-26T14:24:29.181Z,75.20
2017-09-26T14:26:56.658Z,75.20
2017-09-26T14:29:24.146Z,76.70
2017-09-26T14:31:51.622Z,77.50
2017-09-26T14:34:19.121Z,76.80
2017-09-26T14:36:48.727Z,75.50
2017-09-26T14:39:16.201Z,75.40
2017-09-26T14:41:44.446Z,72.60
2017-09-26T14:44:11.931Z,72.60
2017-09-26T14:46:40.181Z,70.30
2017-09-26T14:49:07.664Z,70.40
2017-09-26T14:51:35.132Z,71.40
2017-09-26T14:54:03.383Z,70.90
2017-09-26T14:56:31.695Z,70.70
2017-09-26T14:58:59.173Z,70.00
2017-09-26T15:01:26.657Z,65.60
2017-09-26T15:03:54.212Z,67.10
2017-09-26T15:06:21.681Z,64.00
2017-09-26T15:08:49.174Z,65.30
2017-09-26T15:11:17.437Z,71.40
2017-09-26T15:13:44.920Z,71.30
2017-09-26T15:16:12.409Z,72.30
2017-09-26T15:18:39.882Z,72.20
2017-09-26T15:21:07.369Z,73.00
2017-09-26T15:23:35.688Z,73.80
2017-09-26T15:26:03.155Z,73.80
2017-09-26T15:28:30.669Z,73.80
2017-09-26T15:30:58.915Z,73.40
2017-09-26T15:33:26.397Z,73.40
2017-09-26T15:35:54.633Z,72.00
2017-09-26T15:38:22.178Z,72.00
2017-09-26T15:40:49.781Z,72.00
2017-09-26T15:43:18.058Z,73.40
2017-09-26T15:45:46.293Z,71.00
2017-09-26T15:48:13.761Z,70.90
2017-09-26T15:50:41.253Z,71.20
2017-09-26T15:53:09.490Z,72.00
2017-09-26T15:55:36.982Z,72.00
2017-09-26T15:58:05.252Z,73.20
2017-09-26T16:00:34.230Z,74.00
2017-09-26T16:03:01.888Z,73.90
2017-09-26T16:05:29.382Z,74.20
2017-09-26T16:07:57.649Z,73.20
2017-09-26T16:10:25.894Z,73.00
2017-09-26T16:12:54.877Z,73.20
2017-09-26T16:15:22.476Z,73.10
2017-09-26T16:17:50.712Z,73.30
2017-09-26T16:20:18.191Z,73.20
2017-09-26T16:22:47.157Z,72.30
2017-09-26T16:25:14.653Z,72.20
2017-09-26T16:27:42.915Z,72.50
2017-09-26T16:30:10.408Z,72.50
2017-09-26T16:32:37.895Z,72.10
2017-09-26T16:35:05.448Z,69.40
2017-09-26T16:37:33.021Z,68.20
2017-09-26T16:40:00.534Z,69.10
2017-09-26T16:42:28.771Z,68.40
2017-09-26T16:44:56.264Z,68.40
2017-09-26T16:47:23.777Z,68.70
2017-09-26T16:49:51.251Z,69.10
2017-09-26T16:52:18.726Z,69.40
2017-09-26T16:54:46.982Z,69.90
2017-09-26T16:57:15.363Z,69.50
2017-09-26T16:59:42.848Z,69.60
2017-09-26T17:02:10.335Z,70.10
2017-09-26T17:04:37.813Z,70.40
2017-09-26T17:07:05.292Z,70.70
2017-09-26T17:09:32.775Z,71.30
2017-09-26T17:12:00.239Z,71.30
2017-09-26T17:14:27.814Z,71.90
2017-09-26T17:16:55.288Z,72.30
2017-09-26T17:19:22.828Z,72.30
2017-09-26T17:21:50.306Z,72.20
2017-09-26T17:24:17.807Z,72.70
2017-09-26T17:26:46.070Z,72.90
2017-09-26T17:29:13.546Z,72.90
2017-09-26T17:31:41.796Z,72.90
2017-09-26T17:34:09.685Z,72.80
2017-09-26T17:36:40.584Z,73.70
2017-09-26T17:39:08.052Z,73.60
2017-09-26T17:41:36.201Z,73.40
2017-09-26T17:44:04.148Z,73.60
2017-09-26T17:46:31.982Z,74.20
2017-09-26T17:48:59.907Z,74.90
2017-09-26T17:51:27.391Z,75.20
2017-09-26T17:53:54.875Z,75.30
2017-09-26T17:56:23.122Z,75.00
2017-09-26T17:58:50.640Z,75.00
2017-09-26T18:01:18.097Z,74.10
2017-09-26T18:03:45.579Z,74.10
2017-09-26T18:06:13.558Z,75.00
2017-09-26T18:08:41.047Z,74.80
2017-09-26T18:11:09.272Z,75.20
2017-09-26T18:13:36.773Z,75.20
2017-09-26T18:16:05.023Z,75.20
2017-09-26T18:18:32.572Z,75.10
2017-09-26T18:21:00.202Z,75.50
2017-09-26T18:23:27.889Z,75.50
2017-09-26T18:25:55.450Z,75.30
2017-09-26T18:28:22.954Z,75.10
2017-09-26T18:30:50.446Z,75.40
2017-09-26T18:33:17.910Z,75.10
2017-09-26T18:35:45.411Z,75.80
2017-09-26T18:38:13.650Z,75.10
2017-09-26T18:40:41.133Z,75.00
2017-09-26T18:43:08.619Z,75.90
2017-09-26T18:45:36.101Z,76.40
2017-09-26T18:48:03.613Z,76.80
2017-09-26T18:50:31.906Z,76.90
2017-09-26T18:52:59.419Z,76.90
2017-09-26T18:55:26.899Z,76.80
2017-09-26T18:57:54.411Z,76.90
2017-09-26T19:00:21.892Z,77.10
2017-09-26T19:02:49.378Z,77.00
2017-09-26T19:05:17.638Z,77.80
2017-09-26T19:07:45.108Z,77.70
2017-09-26T19:10:13.346Z,78.70
2017-09-26T19:12:40.823Z,78.70
2017-09-26T19:15:08.289Z,79.30
2017-09-26T19:17:35.787Z,79.80
2017-09-26T19:20:03.434Z,80.10
2017-09-26T19:22:30.934Z,80.40
2017-09-26T19:24:58.585Z,80.60
2017-09-26T19:27:26.065Z,80.80
2017-09-26T19:29:53.647Z,80.90
2017-09-26T19:32:21.896Z,81.20
2017-09-26T19:34:49.396Z,81.20
2017-09-26T19:37:17.650Z,81.80
2017-09-26T19:39:45.122Z,81.70
2017-09-26T19:42:13.436Z,81.40
2017-09-26T19:44:40.917Z,81.40
2017-09-26T19:47:08.399Z,81.50
2017-09-26T19:49:35.891Z,81.40
2017-09-26T19:52:03.900Z,81.20
2017-09-26T19:54:31.455Z,81.10
2017-09-26T19:56:59.036Z,80.60
2017-09-26T19:59:26.703Z,80.80
2017-09-26T20:01:54.274Z,80.60
2017-09-26T20:04:22.537Z,80.40
2017-09-26T20:06:50.076Z,80.40
2017-09-26T20:09:17.555Z,80.30
2017-09-26T20:11:45.047Z,80.40
2017-09-26T20:14:12.529Z,80.30
2017-09-26T20:16:40.023Z,80.70
2017-09-26T20:19:07.603Z,80.90
2017-09-26T20:21:35.883Z,81.20
2017-09-26T20:24:04.123Z,81.30
2017-09-26T20:26:31.725Z,81.30
2017-09-26T20:28:59.223Z,81.80
2017-09-26T20:31:26.721Z,82.20
2017-09-26T20:33:55.004Z,82.50
2017-09-26T20:36:23.317Z,82.50
2017-09-26T20:38:50.796Z,82.50
2017-09-26T20:41:18.293Z,82.60
2017-09-26T20:43:46.551Z,83.00
2017-09-26T20:46:14.029Z,82.80
2017-09-26T20:48:42.289Z,82.80
2017-09-26T20:51:10.534Z,82.50
2017-09-26T20:53:38.023Z,82.30
2017-09-26T20:56:06.266Z,82.10
2017-09-26T20:58:33.873Z,82.10
2017-09-26T21:01:02.103Z,82.10
2017-09-26T21:03:29.658Z,82.10
2017-09-26T21:05:57.138Z,82.00
2017-09-26T21:08:24.726Z,81.70
2017-09-26T21:10:52.987Z,81.90
2017-09-26T21:13:21.222Z,82.00
2017-09-26T21:15:48.817Z,82.00
2017-09-26T21:18:17.049Z,81.90
2017-09-26T21:20:44.554Z,81.90
2017-09-26T21:23:12.789Z,82.10
2017-09-26T21:25:40.270Z,81.90
2017-09-26T21:28:07.925Z,82.30
2017-09-26T21:30:36.159Z,82.10
2017-09-26T21:33:03.638Z,82.00
2017-09-26T21:35:31.093Z,81.90
2017-09-26T21:37:58.578Z,81.90
2017-09-26T21:40:26.082Z,81.80
2017-09-26T21:42:53.549Z,81.90
2017-09-26T21:45:21.024Z,82.00
2017-09-26T21:47:48.489Z,81.90
2017-09-26T21:50:15.978Z,81.80
2017-09-26T21:52:44.212Z,82.60
2017-09-26T21:55:11.862Z,82.50
2017-09-26T21:57:40.057Z,82.90
2017-09-26T22:00:07.557Z,83.20
2017-09-26T22:02:35.038Z,83.10
2017-09-26T22:05:02.477Z,83.10
2017-09-26T22:07:29.963Z,82.80
2017-09-26T22:09:57.457Z,82.90
2017-09-26T22:12:25.696Z,83.30
2017-09-26T22:14:53.193Z,83.30
2017-09-26T22:17:20.652Z,82.90
2017-09-26T22:19:48.152Z,84.00
2017-09-26T22:22:15.619Z,83.40
2017-09-26T22:24:43.261Z,83.50
2017-09-26T22:27:10.771Z,84.20
2017-09-26T22:29:39.010Z,84.10
2017-09-26T22:32:06.994Z,84.10
2017-09-26T22:34:34.585Z,84.10
2017-09-26T22:37:02.808Z,83.50
2017-09-26T22:39:30.267Z,83.50
2017-09-26T22:41:57.743Z,83.20
2017-09-26T22:44:25.214Z,83.20
2017-09-26T22:46:52.694Z,83.10
2017-09-26T22:49:20.925Z,82.80
2017-09-26T22:51:48.393Z,82.80
2017-09-26T22:54:15.873Z,82.90
2017-09-26T22:56:44.065Z,82.90
2017-09-26T22:59:12.301Z,82.80
2017-09-26T23:04:13.760Z,82.80
2017-09-26T23:06:41.223Z,82.70
2017-09-26T23:09:08.686Z,82.60
2017-09-26T23:11:36.262Z,82.80
2017-09-26T23:14:03.746Z,83.00
2017-09-26T23:16:31.986Z,82.90
2017-09-26T23:18:59.609Z,82.90
2017-09-26T23:21:27.080Z,82.50
2017-09-26T23:23:54.561Z,82.90
2017-09-26T23:26:22.813Z,82.90
2017-09-26T23:28:50.278Z,83.00
2017-09-26T23:31:17.759Z,83.00
2017-09-26T23:33:45.209Z,83.30
2017-09-26T23:36:12.684Z,83.40
2017-09-26T23:38:40.919Z,83.40
2017-09-26T23:41:08.398Z,83.40
2017-09-26T23:43:35.865Z,83.30
2017-09-26T23:46:04.089Z,83.10
2017-09-26T23:48:31.561Z,83.10
2017-09-26T23:50:59.014Z,82.70
2017-09-26T23:53:26.489Z,82.50
2017-09-26T23:55:53.959Z,82.60
2017-09-26T23:58:21.434Z,82.50
